createdAt,value
2023-03-29T00:00:19.504Z,6.65
2023-03-29T00:01:35.789Z,6.68
2023-03-29T00:02:19.703Z,6.65
2023-03-29T00:03:19.589Z,6.68
2023-03-29T00:04:19.439Z,6.71
2023-03-29T00:05:19.525Z,6.67
2023-03-29T00:06:19.409Z,6.71
2023-03-29T00:07:19.395Z,6.78
2023-03-29T00:08:19.659Z,6.73
2023-03-29T00:09:19.401Z,6.68
2023-03-29T00:10:19.365Z,6.74
2023-03-29T00:11:19.346Z,6.79
2023-03-29T00:12:19.330Z,6.83
2023-03-29T00:13:19.340Z,6.83
2023-03-29T00:14:19.308Z,6.79
2023-03-29T00:15:19.334Z,6.82
2023-03-29T00:16:19.303Z,6.81
2023-03-29T00:17:19.266Z,6.83
2023-03-29T00:18:19.307Z,6.83
2023-03-29T00:19:19.233Z,6.86
2023-03-29T00:20:19.264Z,6.88
2023-03-29T00:21:19.215Z,6.88
2023-03-29T00:22:19.291Z,6.85
2023-03-29T00:23:19.213Z,6.85
2023-03-29T00:24:19.168Z,6.79
2023-03-29T00:25:19.176Z,6.83
2023-03-29T00:26:19.159Z,6.85
2023-03-29T00:27:19.237Z,6.88
2023-03-29T00:28:19.161Z,6.85
2023-03-29T00:29:19.216Z,6.83
2023-03-29T00:30:19.110Z,6.82
2023-03-29T00:31:19.110Z,6.78
2023-03-29T00:32:19.130Z,6.78
2023-03-29T00:33:19.092Z,6.74
2023-03-29T00:34:19.057Z,6.70
2023-03-29T00:35:19.043Z,6.74
2023-03-29T00:36:19.028Z,6.73
2023-03-29T00:37:18.998Z,6.75
2023-03-29T00:38:19.090Z,6.75
2023-03-29T00:39:18.977Z,6.75
2023-03-29T00:40:19.049Z,6.67
2023-03-29T00:41:18.969Z,6.63
2023-03-29T00:42:19.063Z,6.60
2023-03-29T00:43:18.955Z,6.57
2023-03-29T00:44:18.928Z,6.55
2023-03-29T00:45:19.022Z,6.56
2023-03-29T00:46:18.937Z,6.55
2023-03-29T00:47:18.868Z,6.52
2023-03-29T00:48:18.987Z,6.49
2023-03-29T00:49:18.858Z,6.55
2023-03-29T00:50:18.834Z,6.50
2023-03-29T00:51:18.927Z,6.50
2023-03-29T00:52:18.900Z,6.34
2023-03-29T00:53:18.789Z,6.38
2023-03-29T00:54:18.846Z,6.35
2023-03-29T00:55:18.777Z,6.28
2023-03-29T00:56:18.858Z,6.31
2023-03-29T00:57:18.812Z,6.31
2023-03-29T00:58:18.763Z,6.28
2023-03-29T00:59:18.759Z,6.16
2023-03-29T01:00:18.740Z,6.05
2023-03-29T01:01:18.788Z,6.12
2023-03-29T01:02:18.854Z,6.15
2023-03-29T01:03:18.743Z,6.18
2023-03-29T01:04:18.758Z,6.16
2023-03-29T01:05:18.652Z,6.18
2023-03-29T01:06:18.645Z,6.16
2023-03-29T01:07:18.702Z,6.09
2023-03-29T01:08:18.712Z,6.02
2023-03-29T01:09:18.583Z,6.03
2023-03-29T01:10:18.583Z,5.98
2023-03-29T01:11:18.725Z,5.91
2023-03-29T01:12:18.603Z,5.90
2023-03-29T01:13:18.546Z,5.93
2023-03-29T01:14:18.548Z,5.93
2023-03-29T01:15:18.525Z,5.95
2023-03-29T01:16:18.569Z,6.03
2023-03-29T01:17:18.482Z,6.11
2023-03-29T01:18:18.542Z,6.15
2023-03-29T01:19:18.463Z,6.13
2023-03-29T01:20:18.453Z,6.18
2023-03-29T01:21:18.553Z,6.24
2023-03-29T01:22:18.444Z,6.24
2023-03-29T01:23:18.420Z,6.28
2023-03-29T01:24:18.415Z,6.28
2023-03-29T01:25:18.407Z,6.21
2023-03-29T01:26:18.501Z,6.25
2023-03-29T01:27:18.369Z,6.27
2023-03-29T01:28:18.375Z,6.21
2023-03-29T01:29:18.432Z,6.18
2023-03-29T01:30:18.327Z,6.18
2023-03-29T01:31:18.316Z,6.15
2023-03-29T01:32:18.306Z,6.18
2023-03-29T01:33:18.389Z,6.18
2023-03-29T01:34:18.303Z,6.16
2023-03-29T01:35:18.287Z,6.18
2023-03-29T01:36:18.357Z,6.12
2023-03-29T01:37:18.282Z,6.24
2023-03-29T01:38:18.254Z,6.30
2023-03-29T01:39:18.205Z,6.19
2023-03-29T01:40:18.200Z,6.30
2023-03-29T01:41:18.263Z,6.35
2023-03-29T01:42:18.200Z,6.52
2023-03-29T01:43:18.169Z,6.57
2023-03-29T01:44:18.172Z,6.74
2023-03-29T01:45:18.122Z,6.78
2023-03-29T01:46:18.180Z,6.73
2023-03-29T01:47:18.131Z,6.68
2023-03-29T01:48:18.180Z,6.49
2023-03-29T01:49:18.089Z,6.53
2023-03-29T01:50:18.069Z,6.52
2023-03-29T01:51:18.069Z,6.60
2023-03-29T01:52:18.039Z,6.52
2023-03-29T01:53:18.060Z,6.42
2023-03-29T01:54:18.017Z,6.31
2023-03-29T01:55:18.023Z,6.34
2023-03-29T01:56:18.009Z,6.30
2023-03-29T01:57:18.030Z,6.27
2023-03-29T01:58:18.014Z,6.24
2023-03-29T01:59:17.953Z,6.16
2023-03-29T02:00:17.955Z,6.15
2023-03-29T02:01:17.963Z,6.05
2023-03-29T02:02:17.970Z,6.00
2023-03-29T02:03:18.022Z,6.03
2023-03-29T02:04:17.969Z,5.91
2023-03-29T02:05:17.877Z,5.98
2023-03-29T02:06:17.864Z,6.09
2023-03-29T02:07:17.860Z,6.16
2023-03-29T02:08:17.960Z,6.19
2023-03-29T02:09:17.858Z,6.32
2023-03-29T02:10:17.874Z,6.43
2023-03-29T02:11:17.787Z,6.40
2023-03-29T02:12:17.796Z,6.31
2023-03-29T02:13:17.758Z,6.30
2023-03-29T02:14:18.188Z,6.31
2023-03-29T02:15:17.747Z,6.25
2023-03-29T02:16:17.768Z,6.16
2023-03-29T02:17:17.709Z,6.21
2023-03-29T02:18:17.724Z,6.15
2023-03-29T02:19:17.714Z,6.24
2023-03-29T02:20:17.691Z,6.25
2023-03-29T02:21:17.659Z,6.21
2023-03-29T02:22:17.645Z,6.19
2023-03-29T02:23:17.653Z,6.08
2023-03-29T02:24:17.742Z,6.24
2023-03-29T02:25:17.620Z,6.13
2023-03-29T02:26:17.633Z,6.15
2023-03-29T02:27:17.587Z,6.19
2023-03-29T02:28:17.606Z,6.18
2023-03-29T02:29:17.617Z,6.32
2023-03-29T02:30:17.565Z,6.27
2023-03-29T02:31:17.576Z,6.19
2023-03-29T02:32:17.525Z,6.11
2023-03-29T02:33:17.589Z,6.18
2023-03-29T02:34:17.525Z,6.15
2023-03-29T02:35:17.478Z,6.28
2023-03-29T02:36:17.539Z,6.34
2023-03-29T02:37:17.468Z,6.32
2023-03-29T02:38:17.434Z,6.35
2023-03-29T02:39:17.471Z,6.32
2023-03-29T02:40:17.477Z,6.40
2023-03-29T02:41:17.415Z,6.47
2023-03-29T02:42:17.407Z,6.56
2023-03-29T02:43:17.485Z,6.49
2023-03-29T02:44:17.475Z,6.53
2023-03-29T02:45:17.351Z,6.53
2023-03-29T02:46:17.404Z,6.56
2023-03-29T02:47:17.332Z,6.64
2023-03-29T02:48:17.394Z,6.61
2023-03-29T02:49:17.303Z,6.53
2023-03-29T02:50:17.372Z,6.55
2023-03-29T02:51:19.809Z,6.52
2023-03-29T02:52:17.268Z,6.45
2023-03-29T02:53:17.309Z,6.46
2023-03-29T02:54:17.230Z,6.50
2023-03-29T02:55:17.252Z,6.42
2023-03-29T02:56:17.286Z,6.47
2023-03-29T02:57:17.294Z,6.52
2023-03-29T02:58:17.205Z,6.42
2023-03-29T02:59:17.172Z,6.45
2023-03-29T03:00:17.208Z,6.47
2023-03-29T03:01:17.134Z,6.49
2023-03-29T03:02:17.182Z,6.53
2023-03-29T03:03:17.256Z,6.49
2023-03-29T03:04:17.132Z,6.49
2023-03-29T03:05:17.099Z,6.46
2023-03-29T03:06:17.092Z,6.47
2023-03-29T03:07:17.075Z,6.52
2023-03-29T03:08:17.081Z,6.55
2023-03-29T03:09:17.063Z,6.60
2023-03-29T03:10:17.045Z,6.64
2023-03-29T03:11:17.038Z,6.79
2023-03-29T03:12:17.008Z,6.71
2023-03-29T03:13:17.063Z,6.63
2023-03-29T03:14:17.002Z,6.65
2023-03-29T03:15:17.064Z,6.68
2023-03-29T03:16:16.993Z,6.73
2023-03-29T03:17:16.950Z,6.71
2023-03-29T03:18:16.948Z,6.75
2023-03-29T03:19:16.950Z,6.79
2023-03-29T03:20:16.984Z,6.85
2023-03-29T03:21:16.895Z,6.88
2023-03-29T03:22:17.024Z,6.83
2023-03-29T03:23:16.858Z,6.67
2023-03-29T03:24:16.846Z,6.64
2023-03-29T03:25:16.909Z,6.61
2023-03-29T03:26:16.953Z,6.56
2023-03-29T03:27:16.800Z,6.57
2023-03-29T03:28:16.787Z,6.61
2023-03-29T03:29:16.803Z,6.74
2023-03-29T03:30:16.804Z,6.70
2023-03-29T03:31:16.801Z,6.73
2023-03-29T03:32:16.753Z,6.70
2023-03-29T03:33:16.732Z,6.81
2023-03-29T03:34:16.714Z,6.67
2023-03-29T03:35:16.725Z,6.71
2023-03-29T03:36:16.694Z,6.67
2023-03-29T03:37:16.664Z,6.79
2023-03-29T03:38:16.663Z,6.82
2023-03-29T03:39:16.656Z,6.75
2023-03-29T03:40:16.673Z,6.70
2023-03-29T03:41:16.619Z,6.73
2023-03-29T03:42:16.612Z,6.81
2023-03-29T03:43:16.616Z,6.75
2023-03-29T03:44:16.601Z,6.79
2023-03-29T03:45:16.618Z,6.74
2023-03-29T03:46:16.644Z,6.79
2023-03-29T03:47:16.599Z,6.70
2023-03-29T03:48:16.546Z,6.64
2023-03-29T03:49:16.520Z,6.67
2023-03-29T03:50:16.937Z,6.63
2023-03-29T03:51:16.506Z,6.71
2023-03-29T03:52:16.549Z,6.71
2023-03-29T03:53:16.462Z,6.64
2023-03-29T03:54:16.454Z,6.73
2023-03-29T03:55:16.471Z,6.67
2023-03-29T03:56:16.487Z,6.67
2023-03-29T03:57:16.460Z,6.74
2023-03-29T03:58:16.396Z,6.74
2023-03-29T03:59:16.525Z,6.73
2023-03-29T04:00:16.373Z,6.64
2023-03-29T04:01:16.372Z,6.64
2023-03-29T04:02:16.544Z,6.70
2023-03-29T04:03:16.480Z,6.78
2023-03-29T04:04:16.421Z,6.81
2023-03-29T04:05:16.342Z,6.86
2023-03-29T04:06:16.374Z,6.85
2023-03-29T04:07:16.272Z,6.83
2023-03-29T04:08:16.279Z,6.81
2023-03-29T04:09:16.336Z,6.73
2023-03-29T04:10:16.285Z,6.57
2023-03-29T04:11:16.223Z,6.55
2023-03-29T04:12:16.228Z,6.52
2023-03-29T04:13:16.199Z,6.50
2023-03-29T04:14:16.237Z,6.46
2023-03-29T04:15:16.203Z,6.50
2023-03-29T04:16:16.217Z,6.47
2023-03-29T04:17:16.191Z,6.52
2023-03-29T04:18:16.375Z,6.49
2023-03-29T04:19:16.118Z,6.43
2023-03-29T04:20:16.137Z,6.52
2023-03-29T04:21:16.913Z,6.56
2023-03-29T04:22:16.095Z,6.60
2023-03-29T04:23:16.105Z,6.55
2023-03-29T04:24:16.126Z,6.53
2023-03-29T04:25:16.058Z,6.57
2023-03-29T04:26:16.043Z,6.63
2023-03-29T04:27:16.094Z,6.63
2023-03-29T04:28:16.034Z,6.63
2023-03-29T04:29:16.003Z,6.68
2023-03-29T04:30:16.086Z,6.70
2023-03-29T04:31:16.020Z,6.68
2023-03-29T04:32:15.980Z,6.68
2023-03-29T04:33:16.015Z,6.70
2023-03-29T04:34:15.956Z,6.73
2023-03-29T04:35:15.952Z,6.70
2023-03-29T04:36:16.021Z,6.74
2023-03-29T04:37:15.894Z,6.79
2023-03-29T04:38:15.895Z,6.75
2023-03-29T04:39:15.938Z,6.75
2023-03-29T04:40:15.875Z,6.75
2023-03-29T04:41:15.872Z,6.71
2023-03-29T04:42:15.898Z,6.65
2023-03-29T04:43:15.838Z,6.73
2023-03-29T04:44:15.818Z,6.68
2023-03-29T04:45:15.781Z,6.70
2023-03-29T04:46:15.793Z,6.73
2023-03-29T04:47:15.728Z,6.81
2023-03-29T04:48:15.784Z,6.86
2023-03-29T04:49:15.681Z,6.86
2023-03-29T04:50:15.731Z,6.86
2023-03-29T04:51:15.664Z,6.79
2023-03-29T04:52:15.657Z,6.74
2023-03-29T04:53:15.656Z,6.79
2023-03-29T04:54:15.684Z,6.74
2023-03-29T04:55:15.668Z,6.68
2023-03-29T04:56:15.612Z,6.67
2023-03-29T04:57:15.626Z,6.63
2023-03-29T04:58:15.587Z,6.67
2023-03-29T04:59:15.561Z,6.65
2023-03-29T05:00:15.732Z,6.67
2023-03-29T05:01:15.552Z,6.61
2023-03-29T05:02:15.595Z,6.61
2023-03-29T05:03:15.511Z,6.67
2023-03-29T05:04:15.562Z,6.73
2023-03-29T05:05:15.613Z,6.63
2023-03-29T05:06:15.485Z,6.64
2023-03-29T05:07:15.486Z,6.65
2023-03-29T05:08:15.505Z,6.65
2023-03-29T05:09:15.443Z,6.65
2023-03-29T05:10:15.498Z,6.60
2023-03-29T05:11:15.438Z,6.67
2023-03-29T05:12:15.392Z,6.74
2023-03-29T05:13:15.377Z,6.82
2023-03-29T05:14:15.393Z,6.85
2023-03-29T05:15:15.396Z,6.91
2023-03-29T05:16:15.365Z,6.82
2023-03-29T05:17:15.392Z,6.96
2023-03-29T05:18:15.314Z,7.00
2023-03-29T05:19:15.309Z,7.11
2023-03-29T05:20:15.319Z,7.16
2023-03-29T05:21:15.342Z,7.15
2023-03-29T05:22:15.273Z,7.13
2023-03-29T05:23:15.250Z,7.21
2023-03-29T05:24:15.308Z,7.16
2023-03-29T05:25:15.246Z,7.26
2023-03-29T05:26:15.240Z,7.24
2023-03-29T05:27:15.214Z,7.31
2023-03-29T05:28:15.248Z,7.19
2023-03-29T05:29:15.178Z,7.15
2023-03-29T05:30:15.215Z,7.29
2023-03-29T05:31:16.925Z,7.39
2023-03-29T05:32:15.189Z,7.43
2023-03-29T05:33:15.119Z,7.43
2023-03-29T05:34:15.104Z,7.54
2023-03-29T05:35:15.146Z,7.55
2023-03-29T05:36:15.127Z,7.54
2023-03-29T05:37:15.067Z,7.54
2023-03-29T05:38:15.067Z,7.50
2023-03-29T05:39:15.110Z,7.43
2023-03-29T05:40:15.052Z,7.21
2023-03-29T05:41:15.020Z,7.34
2023-03-29T05:42:15.008Z,7.42
2023-03-29T05:43:15.089Z,7.52
2023-03-29T05:44:14.976Z,7.49
2023-03-29T05:45:14.989Z,7.36
2023-03-29T05:46:14.996Z,7.24
2023-03-29T05:47:14.954Z,7.40
2023-03-29T05:48:14.948Z,7.39
2023-03-29T05:49:14.986Z,7.29
2023-03-29T05:50:14.913Z,7.39
2023-03-29T05:51:14.930Z,7.46
2023-03-29T05:52:14.883Z,7.54
2023-03-29T05:53:14.863Z,7.52
2023-03-29T05:54:14.898Z,7.43
2023-03-29T05:55:14.852Z,7.50
2023-03-29T05:56:14.877Z,7.62
2023-03-29T05:57:14.834Z,7.55
2023-03-29T05:58:14.796Z,7.54
2023-03-29T05:59:14.871Z,7.68
2023-03-29T06:00:14.775Z,7.64
2023-03-29T06:01:14.793Z,7.66
2023-03-29T06:02:14.757Z,7.69
2023-03-29T06:03:20.864Z,7.78
2023-03-29T06:04:14.852Z,7.76
2023-03-29T06:05:14.721Z,7.69
2023-03-29T06:06:14.923Z,7.64
2023-03-29T06:07:14.689Z,7.61
2023-03-29T06:08:14.716Z,7.77
2023-03-29T06:09:14.653Z,7.88
2023-03-29T06:10:14.663Z,7.95
2023-03-29T06:11:14.729Z,8.14
2023-03-29T06:12:14.670Z,8.12
2023-03-29T06:13:14.601Z,8.10
2023-03-29T06:14:14.614Z,8.19
2023-03-29T06:15:14.582Z,8.20
2023-03-29T06:16:14.585Z,8.17
2023-03-29T06:17:14.674Z,8.20
2023-03-29T06:18:14.541Z,8.26
2023-03-29T06:19:14.532Z,8.24
2023-03-29T06:20:14.593Z,8.32
2023-03-29T06:21:14.538Z,8.39
2023-03-29T06:22:14.974Z,8.44
2023-03-29T06:23:14.499Z,8.63
2023-03-29T06:24:14.454Z,8.78
2023-03-29T06:25:14.539Z,8.93
2023-03-29T06:26:14.448Z,8.89
2023-03-29T06:27:14.424Z,8.70
2023-03-29T06:28:14.420Z,8.56
2023-03-29T06:29:14.407Z,8.60
2023-03-29T06:30:14.454Z,8.60
2023-03-29T06:31:14.474Z,8.63
2023-03-29T06:32:14.368Z,8.56
2023-03-29T06:33:14.362Z,8.53
2023-03-29T06:34:14.363Z,8.46
2023-03-29T06:35:14.332Z,8.67
2023-03-29T06:36:14.337Z,8.56
2023-03-29T06:37:14.326Z,8.53
2023-03-29T06:38:14.282Z,8.56
2023-03-29T06:39:14.287Z,8.68
2023-03-29T06:40:14.247Z,8.68
2023-03-29T06:41:14.269Z,8.62
2023-03-29T06:42:21.106Z,8.67
2023-03-29T06:43:14.237Z,8.62
2023-03-29T06:44:14.198Z,8.65
2023-03-29T06:45:14.263Z,8.62
2023-03-29T06:46:14.261Z,8.67
2023-03-29T06:47:14.166Z,8.68
2023-03-29T06:48:14.150Z,8.70
2023-03-29T06:49:14.135Z,8.78
2023-03-29T06:50:14.163Z,8.71
2023-03-29T06:51:14.154Z,8.62
2023-03-29T06:52:14.100Z,8.70
2023-03-29T06:53:14.104Z,8.71
2023-03-29T06:54:14.059Z,8.74
2023-03-29T06:55:14.125Z,8.93
2023-03-29T06:56:14.090Z,8.89
2023-03-29T06:57:14.060Z,8.95
2023-03-29T06:58:14.087Z,8.95
2023-03-29T06:59:14.012Z,8.68
2023-03-29T07:00:14.026Z,8.80
2023-03-29T07:01:14.078Z,8.86
2023-03-29T07:02:13.999Z,8.88
2023-03-29T07:03:14.095Z,9.01
2023-03-29T07:04:14.001Z,9.08
2023-03-29T07:05:14.017Z,9.08
2023-03-29T07:06:13.958Z,8.90
2023-03-29T07:07:14.051Z,8.95
2023-03-29T07:08:13.943Z,8.96
2023-03-29T07:09:13.892Z,9.09
2023-03-29T07:10:13.941Z,9.09
2023-03-29T07:11:13.889Z,9.09
2023-03-29T07:12:14.052Z,9.08
2023-03-29T07:13:13.818Z,9.16
2023-03-29T07:14:13.847Z,9.19
2023-03-29T07:15:13.792Z,9.18
2023-03-29T07:16:13.969Z,9.11
2023-03-29T07:17:13.816Z,9.09
2023-03-29T07:18:13.768Z,9.24
2023-03-29T07:19:13.733Z,9.18
2023-03-29T07:20:13.723Z,9.18
2023-03-29T07:21:13.736Z,9.12
2023-03-29T07:22:13.716Z,9.32
2023-03-29T07:23:13.740Z,9.32
2023-03-29T07:24:13.684Z,9.34
2023-03-29T07:25:13.670Z,9.48
2023-03-29T07:26:13.909Z,9.78
2023-03-29T07:27:13.643Z,9.90
2023-03-29T07:28:13.686Z,9.96
2023-03-29T07:29:13.611Z,10.03
2023-03-29T07:30:13.590Z,9.70
2023-03-29T07:31:13.599Z,9.85
2023-03-29T07:32:13.677Z,10.06
2023-03-29T07:33:13.673Z,10.18
2023-03-29T07:34:13.804Z,10.24
2023-03-29T07:35:13.589Z,10.23
2023-03-29T07:36:13.559Z,10.31
2023-03-29T07:37:13.652Z,10.24
2023-03-29T07:38:13.510Z,10.03
2023-03-29T07:39:13.486Z,10.20
2023-03-29T07:40:13.552Z,10.01
2023-03-29T07:41:13.474Z,9.83
2023-03-29T07:42:13.474Z,9.90
2023-03-29T07:43:13.446Z,9.85
2023-03-29T07:44:13.421Z,9.98
2023-03-29T07:45:13.450Z,10.12
2023-03-29T07:46:13.434Z,10.05
2023-03-29T07:47:13.392Z,10.16
2023-03-29T07:48:13.490Z,10.12
2023-03-29T07:49:13.364Z,10.28
2023-03-29T07:50:13.350Z,10.49
2023-03-29T07:51:13.312Z,10.68
2023-03-29T07:52:13.315Z,10.80
2023-03-29T07:53:13.356Z,11.04
2023-03-29T07:54:13.288Z,10.65
2023-03-29T07:55:13.264Z,10.70
2023-03-29T07:56:13.246Z,10.79
2023-03-29T07:57:13.384Z,10.78
2023-03-29T07:58:13.221Z,10.87
2023-03-29T07:59:13.208Z,10.83
2023-03-29T08:00:13.250Z,10.76
2023-03-29T08:01:15.234Z,10.86
2023-03-29T08:02:13.190Z,11.08
2023-03-29T08:03:13.444Z,11.01
2023-03-29T08:04:13.231Z,11.11
2023-03-29T08:05:13.241Z,11.28
2023-03-29T08:06:13.138Z,11.51
2023-03-29T08:07:13.172Z,11.54
2023-03-29T08:08:13.086Z,11.79
2023-03-29T08:09:13.077Z,11.49
2023-03-29T08:10:13.103Z,11.54
2023-03-29T08:11:13.051Z,11.85
2023-03-29T08:12:13.074Z,12.04
2023-03-29T08:13:13.022Z,12.28
2023-03-29T08:14:13.045Z,12.29
2023-03-29T08:15:12.999Z,12.35
2023-03-29T08:16:12.989Z,12.44
2023-03-29T08:17:13.100Z,12.61
2023-03-29T08:18:12.998Z,12.87
2023-03-29T08:19:12.953Z,12.77
2023-03-29T08:20:12.950Z,12.96
2023-03-29T08:21:12.978Z,13.06
2023-03-29T08:22:12.927Z,13.29
2023-03-29T08:23:12.891Z,13.46
2023-03-29T08:24:12.895Z,13.45
2023-03-29T08:25:12.928Z,13.45
2023-03-29T08:26:12.850Z,13.57
2023-03-29T08:27:12.907Z,13.27
2023-03-29T08:28:12.902Z,12.79
2023-03-29T08:29:12.828Z,12.86
2023-03-29T08:30:12.813Z,12.79
2023-03-29T08:31:12.996Z,12.33
2023-03-29T08:32:12.804Z,12.17
2023-03-29T08:33:12.807Z,12.38
2023-03-29T08:34:12.756Z,12.22
2023-03-29T08:35:12.819Z,12.48
2023-03-29T08:36:12.731Z,12.69
2023-03-29T08:37:12.741Z,12.81
2023-03-29T08:38:12.717Z,12.53
2023-03-29T08:39:12.704Z,12.22
2023-03-29T08:40:12.683Z,12.32
2023-03-29T08:41:12.658Z,12.18
2023-03-29T08:42:12.697Z,12.43
2023-03-29T08:43:12.629Z,12.00
2023-03-29T08:44:12.628Z,12.05
2023-03-29T08:45:12.609Z,12.22
2023-03-29T08:46:12.676Z,12.17
2023-03-29T08:47:12.614Z,12.30
2023-03-29T08:48:12.551Z,12.07
2023-03-29T08:49:12.565Z,12.30
2023-03-29T08:50:12.543Z,12.32
2023-03-29T08:51:12.522Z,12.58
2023-03-29T08:52:12.525Z,12.65
2023-03-29T08:53:12.495Z,12.81
2023-03-29T08:54:12.599Z,12.79
2023-03-29T08:55:12.465Z,12.98
2023-03-29T08:56:12.473Z,13.04
2023-03-29T08:57:12.485Z,13.08
2023-03-29T08:58:12.425Z,12.73
2023-03-29T08:59:12.430Z,12.23
2023-03-29T09:00:12.388Z,12.41
2023-03-29T09:01:12.396Z,12.40
2023-03-29T09:02:12.511Z,12.32
2023-03-29T09:03:12.413Z,12.53
2023-03-29T09:04:12.357Z,12.51
2023-03-29T09:05:12.345Z,12.73
2023-03-29T09:06:12.326Z,12.77
2023-03-29T09:07:12.343Z,13.14
2023-03-29T09:08:12.291Z,12.98
2023-03-29T09:09:12.314Z,12.80
2023-03-29T09:10:12.266Z,13.06
2023-03-29T09:11:18.744Z,12.90
2023-03-29T09:12:12.248Z,12.98
2023-03-29T09:13:12.275Z,12.99
2023-03-29T09:14:12.204Z,13.05
2023-03-29T09:15:12.200Z,13.39
2023-03-29T09:16:12.254Z,13.13
2023-03-29T09:17:12.229Z,13.23
2023-03-29T09:18:12.234Z,13.30
2023-03-29T09:19:12.144Z,13.61
2023-03-29T09:20:12.148Z,13.73
2023-03-29T09:21:12.117Z,13.58
2023-03-29T09:22:12.100Z,13.78
2023-03-29T09:23:12.121Z,14.15
2023-03-29T09:24:12.100Z,13.97
2023-03-29T09:25:12.060Z,14.05
2023-03-29T09:26:12.065Z,14.15
2023-03-29T09:27:12.056Z,14.13
2023-03-29T09:28:12.041Z,14.36
2023-03-29T09:29:12.027Z,14.53
2023-03-29T09:30:12.003Z,14.71
2023-03-29T09:31:12.021Z,15.03
2023-03-29T09:32:11.970Z,15.10
2023-03-29T09:33:12.052Z,14.82
2023-03-29T09:34:13.706Z,14.69
2023-03-29T09:35:11.920Z,14.96
2023-03-29T09:36:12.003Z,15.14
2023-03-29T09:37:11.945Z,14.99
2023-03-29T09:38:11.904Z,15.08
2023-03-29T09:39:11.866Z,15.20
2023-03-29T09:40:11.873Z,15.47
2023-03-29T09:41:11.852Z,15.59
2023-03-29T09:42:11.851Z,15.54
2023-03-29T09:43:11.876Z,15.03
2023-03-29T09:44:20.755Z,14.78
2023-03-29T09:45:11.792Z,14.93
2023-03-29T09:46:11.827Z,14.95
2023-03-29T09:47:11.766Z,14.93
2023-03-29T09:48:11.819Z,14.96
2023-03-29T09:49:11.770Z,15.10
2023-03-29T09:50:23.149Z,14.89
2023-03-29T09:51:11.713Z,14.87
2023-03-29T09:52:11.707Z,14.74
2023-03-29T09:53:11.722Z,14.59
2023-03-29T09:54:11.675Z,14.53
2023-03-29T09:55:11.660Z,14.61
2023-03-29T09:56:11.675Z,15.12
2023-03-29T09:57:11.694Z,15.03
2023-03-29T09:58:11.639Z,15.40
2023-03-29T09:59:11.710Z,15.63
2023-03-29T10:00:11.595Z,15.44
2023-03-29T10:01:11.591Z,15.19
2023-03-29T10:02:11.598Z,15.41
2023-03-29T10:03:11.619Z,15.68
2023-03-29T10:04:11.646Z,15.77
2023-03-29T10:05:11.586Z,15.51
2023-03-29T10:06:11.527Z,15.23
2023-03-29T10:07:11.506Z,15.47
2023-03-29T10:08:11.509Z,15.17
2023-03-29T10:09:11.493Z,15.36
2023-03-29T10:10:11.461Z,15.35
2023-03-29T10:11:11.452Z,15.40
2023-03-29T10:12:11.469Z,15.27
2023-03-29T10:13:11.434Z,15.26
2023-03-29T10:14:11.414Z,15.50
2023-03-29T10:15:19.667Z,15.29
2023-03-29T10:16:11.390Z,15.52
2023-03-29T10:17:11.364Z,15.22
2023-03-29T10:18:11.487Z,15.05
2023-03-29T10:19:11.340Z,15.07
2023-03-29T10:20:11.352Z,14.55
2023-03-29T10:21:11.332Z,14.64
2023-03-29T10:22:11.334Z,14.74
2023-03-29T10:23:11.284Z,15.19
2023-03-29T10:24:11.304Z,15.65
2023-03-29T10:25:11.319Z,15.76
2023-03-29T10:26:11.259Z,15.65
2023-03-29T10:27:11.314Z,15.36
2023-03-29T10:28:11.280Z,15.30
2023-03-29T10:29:11.284Z,15.23
2023-03-29T10:30:11.220Z,15.65
2023-03-29T10:31:11.198Z,15.98
2023-03-29T10:32:11.263Z,16.21
2023-03-29T10:33:11.256Z,16.00
2023-03-29T10:34:11.189Z,16.21
2023-03-29T10:35:11.126Z,16.32
2023-03-29T10:36:11.181Z,15.81
2023-03-29T10:37:11.121Z,15.22
2023-03-29T10:38:11.096Z,15.59
2023-03-29T10:39:11.102Z,15.88
2023-03-29T10:40:11.105Z,16.34
2023-03-29T10:41:11.042Z,16.42
2023-03-29T10:42:11.046Z,16.33
2023-03-29T10:43:11.032Z,16.64
2023-03-29T10:44:11.072Z,16.51
2023-03-29T10:45:11.057Z,16.54
2023-03-29T10:46:11.042Z,16.46
2023-03-29T10:47:10.991Z,16.62
2023-03-29T10:48:11.057Z,16.52
2023-03-29T10:49:11.024Z,16.64
2023-03-29T10:50:10.946Z,16.59
2023-03-29T10:51:10.911Z,16.62
2023-03-29T10:52:10.899Z,16.61
2023-03-29T10:53:10.937Z,16.34
2023-03-29T10:54:10.871Z,16.09
2023-03-29T10:55:10.857Z,16.40
2023-03-29T10:56:12.221Z,16.51
2023-03-29T10:57:10.963Z,16.14
2023-03-29T10:58:10.977Z,16.09
2023-03-29T10:59:13.391Z,16.10
2023-03-29T11:00:11.408Z,16.13
2023-03-29T11:01:10.797Z,16.02
2023-03-29T11:02:10.782Z,15.99
2023-03-29T11:03:12.019Z,15.96
2023-03-29T11:04:10.837Z,15.99
2023-03-29T11:05:10.781Z,16.02
2023-03-29T11:06:10.719Z,15.84
2023-03-29T11:07:10.715Z,15.63
2023-03-29T11:08:10.743Z,15.32
2023-03-29T11:09:10.720Z,15.14
2023-03-29T11:10:10.679Z,15.07
2023-03-29T11:11:10.650Z,15.38
2023-03-29T11:12:15.973Z,15.41
2023-03-29T11:13:10.622Z,15.40
2023-03-29T11:14:10.635Z,15.22
2023-03-29T11:15:10.612Z,15.43
2023-03-29T11:16:10.639Z,15.40
2023-03-29T11:17:10.576Z,15.35
2023-03-29T11:18:10.595Z,15.35
2023-03-29T11:19:10.606Z,15.35
2023-03-29T11:20:10.568Z,15.54
2023-03-29T11:21:10.963Z,15.85
2023-03-29T11:22:10.529Z,15.65
2023-03-29T11:23:10.493Z,15.58
2023-03-29T11:24:10.518Z,15.56
2023-03-29T11:25:10.504Z,15.66
2023-03-29T11:26:10.454Z,15.65
2023-03-29T11:27:10.431Z,15.66
2023-03-29T11:28:10.448Z,15.29
2023-03-29T11:29:10.461Z,15.43
2023-03-29T11:30:10.418Z,15.47
2023-03-29T11:31:10.390Z,15.29
2023-03-29T11:32:10.382Z,15.29
2023-03-29T11:33:10.369Z,15.30
2023-03-29T11:34:10.619Z,15.26
2023-03-29T11:35:10.403Z,15.51
2023-03-29T11:36:10.346Z,15.83
2023-03-29T11:37:10.313Z,15.87
2023-03-29T11:38:10.336Z,16.06
2023-03-29T11:39:10.312Z,15.65
2023-03-29T11:40:10.286Z,15.52
2023-03-29T11:41:10.337Z,15.38
2023-03-29T11:42:10.246Z,15.59
2023-03-29T11:43:10.327Z,15.77
2023-03-29T11:44:10.232Z,15.93
2023-03-29T11:45:10.252Z,16.06
2023-03-29T11:46:10.226Z,15.91
2023-03-29T11:47:10.183Z,15.76
2023-03-29T11:48:10.237Z,15.77
2023-03-29T11:49:10.238Z,15.87
2023-03-29T11:50:10.170Z,15.81
2023-03-29T11:51:10.119Z,15.73
2023-03-29T11:52:10.125Z,15.58
2023-03-29T11:53:10.100Z,15.51
2023-03-29T11:54:10.103Z,15.58
2023-03-29T11:55:10.322Z,15.88
2023-03-29T11:56:10.117Z,15.69
2023-03-29T11:57:10.081Z,15.63
2023-03-29T11:58:10.030Z,15.59
2023-03-29T11:59:10.047Z,15.35
2023-03-29T12:00:10.049Z,15.29
2023-03-29T12:01:09.980Z,15.07
2023-03-29T12:02:10.006Z,15.20
2023-03-29T12:03:09.998Z,15.32
2023-03-29T12:04:10.005Z,15.32
2023-03-29T12:05:10.029Z,15.25
2023-03-29T12:06:09.922Z,15.47
2023-03-29T12:07:09.908Z,15.73
2023-03-29T12:08:09.897Z,15.81
2023-03-29T12:09:09.884Z,16.08
2023-03-29T12:10:10.051Z,15.65
2023-03-29T12:11:09.862Z,15.36
2023-03-29T12:12:09.923Z,15.05
2023-03-29T12:13:09.824Z,14.89
2023-03-29T12:14:09.814Z,14.89
2023-03-29T12:15:09.842Z,14.64
2023-03-29T12:16:09.845Z,14.33
2023-03-29T12:17:09.794Z,14.28
2023-03-29T12:18:09.804Z,14.33
2023-03-29T12:19:09.759Z,14.45
2023-03-29T12:20:09.839Z,14.49
2023-03-29T12:21:09.779Z,14.59
2023-03-29T12:22:09.721Z,14.63
2023-03-29T12:23:09.738Z,14.87
2023-03-29T12:24:09.677Z,14.89
2023-03-29T12:25:10.395Z,14.95
2023-03-29T12:26:09.703Z,15.04
2023-03-29T12:27:09.634Z,14.89
2023-03-29T12:28:09.633Z,14.70
2023-03-29T12:29:09.645Z,14.51
2023-03-29T12:30:09.674Z,14.56
2023-03-29T12:31:09.624Z,14.69
2023-03-29T12:32:09.710Z,14.41
2023-03-29T12:33:09.598Z,14.36
2023-03-29T12:34:09.547Z,14.33
2023-03-29T12:35:09.580Z,14.36
2023-03-29T12:36:09.600Z,14.40
2023-03-29T12:37:09.511Z,14.53
2023-03-29T12:38:09.506Z,14.53
2023-03-29T12:39:09.496Z,14.55
2023-03-29T12:40:09.467Z,14.34
2023-03-29T12:41:09.480Z,14.19
2023-03-29T12:42:09.477Z,14.22
2023-03-29T12:43:09.435Z,14.21
2023-03-29T12:44:10.756Z,14.11
2023-03-29T12:45:09.483Z,14.23
2023-03-29T12:46:09.461Z,14.44
2023-03-29T12:47:09.378Z,14.40
2023-03-29T12:48:09.417Z,14.26
2023-03-29T12:49:09.351Z,14.36
2023-03-29T12:50:09.391Z,14.33
2023-03-29T12:51:09.357Z,14.49
2023-03-29T12:52:09.340Z,14.48
2023-03-29T12:53:09.294Z,14.40
2023-03-29T12:54:09.294Z,14.58
2023-03-29T12:55:09.308Z,14.64
2023-03-29T12:56:09.290Z,14.77
2023-03-29T12:57:09.283Z,14.97
2023-03-29T12:58:09.279Z,14.92
2023-03-29T12:59:09.215Z,14.61
2023-03-29T13:00:09.247Z,14.36
2023-03-29T13:01:09.292Z,14.37
2023-03-29T13:02:09.220Z,14.63
2023-03-29T13:03:09.188Z,14.61
2023-03-29T13:04:09.181Z,14.69
2023-03-29T13:05:09.177Z,14.79
2023-03-29T13:06:09.132Z,14.92
2023-03-29T13:07:09.161Z,15.05